KSZT

Sandpoint Airport

Sandpoint, Idaho, USA
METAR KSZT 220655Z AUTO 00000KT 10SM SCT120 08/06 A2987 RMK AO2
Observed Flight Rules
Sep-22 @ 06:55 UTC (27 minutes ago) Visual Flight Rules
Visibility Clouds
10 miles
Temperatures Readings
Current 8°C / 46°F
Dewpoint 6°C / 43°F
Humidity 87%
Altimeter 29.87" Hg
Pressure 1012 hPa
Elevation 648
METAR KSZT 220655Z AUTO 00000KT 10SM SCT120 08/06 A2987 RMK AO2
Observed Flight Rules
Sep-22 @ 06:55 UTC
(27 minutes ago)
VFR
Clouds
Temperature Dewpoint
8°C / 46°F 6°C / 43°F
Humidity Altimeter Pressure
87% 29.87" Hg 1012 hPa